Página principal
METAR-TAF:

METAR-TAF

Aeroportos :

Weno, Micronésia

latitude: 07-28N, longitude: 151-51E, altura: 3 m

Observação actual do tempo

O boletim foi feito há 39 minutos, às 23:50 UTC
Vento 8 kt de nordeste
Temperatura 29°C
Humidade 89%
Pressão 1011 hPa
Visibilidade: 24.1 km
Poucas nuvensa uma altura de 1400 ft
Nuvens fragmentadasa uma altura de 12000 ft
Encobertoa uma altura de 28000 ft

METAR: PTKK 262350Z 04008KT 15SM FEW014 BKN120 OVC280 29/27 A2984 RMK SLP106 8/171 T02940272 10294 20267 52005

Hora: 10:29 (00:29 UTC)

Previsão

O boletim foi feito há 59 minutos, às 23:30 UTC
Previsão válida de 26 às 00 UTC a 26 às 24 UTC
Vento 10 kt de nordeste
Visibilidade: 10 km
Poucas nuvensa uma altura de 1600 ft
Nuvens dispersasa uma altura de 4000 ft
Nuvens fragmentadasa uma altura de 14000 ft
aguaceiros nas vizinhanças

TAF: PTKK 252330Z 2600/2624 04010KT P6SM VCSH FEW016 SCT040 BKN140

Observações e previsões do tempo de mais de 4000 aeroportos (mensagens METAR e TAF).

As estações disponíveis são os pontos amarelos e vermelhos sobre o mapa.

Mova o rato sobre o mapa para ver o nome da estação.

Depois clique no ponto para visualizar as observações e previsões meteorológicas.

Para alterar o mapa : clique nos botões verdes com uma cruz preta para aumentar o zoom; no botão verde com uma pitada de zoom; ou nas setas verdes para mapas adjacentes.


METAR-TAF: